Time;durP1;ratioP1;P1;durP2;ratioP2;P2;SDS_P1;SDS_P2;PMS_P1;PMS_P2;Temp;Humidity;BMP_temperature;BMP_pressure;BME280_temperature;BME280_humidity;BME280_pressure;Samples;Min_cycle;Max_cycle;Signal;HPM_P1;HPM_P2
2023/05/03 00:00:00;;;;;;;3.75;2.90;;;12.80;49.40;;;;;;5068655;28;20091;-59
2023/05/03 00:02:26;;;;;;;3.95;2.53;;;12.80;49.50;;;;;;5082967;28;20467;-51
2023/05/03 00:04:53;;;;;;;2.80;2.50;;;12.80;49.70;;;;;;5068788;28;20064;-50
2023/05/03 00:07:19;;;;;;;4.38;2.70;;;12.80;49.80;;;;;;5070750;28;20454;-56
2023/05/03 00:09:45;;;;;;;5.65;2.85;;;12.70;49.90;;;;;;5060181;28;20132;-57
2023/05/03 00:12:11;;;;;;;4.63;2.83;;;12.70;50.00;;;;;;5080567;28;20470;-57
2023/05/03 00:14:36;;;;;;;3.13;2.83;;;12.70;50.20;;;;;;5071479;28;20039;-57
2023/05/03 00:17:02;;;;;;;3.13;2.30;;;12.70;50.20;;;;;;5064242;28;20027;-49
2023/05/03 00:19:32;;;;;;;3.80;2.55;;;12.60;50.20;;;;;;5073414;28;20037;-52
2023/05/03 00:21:58;;;;;;;3.15;2.53;;;12.60;50.30;;;;;;5062799;28;20032;-51
2023/05/03 00:24:24;;;;;;;3.33;2.50;;;12.60;50.40;;;;;;5062758;28;20379;-47
2023/05/03 00:26:50;;;;;;;3.92;2.83;;;12.60;50.60;;;;;;5076706;28;20130;-56
2023/05/03 00:29:15;;;;;;;4.47;2.70;;;12.50;50.50;;;;;;5076488;28;20434;-54
2023/05/03 00:31:43;;;;;;;3.35;2.65;;;12.50;50.80;;;;;;5060749;28;20033;-55
2023/05/03 00:34:09;;;;;;;3.42;2.80;;;12.50;50.80;;;;;;5066766;28;20091;-56
2023/05/03 00:36:34;;;;;;;5.30;2.80;;;12.50;51.00;;;;;;5067448;28;20024;-56
2023/05/03 00:39:00;;;;;;;3.78;2.90;;;12.40;51.00;;;;;;5062752;28;20078;-57
2023/05/03 00:41:26;;;;;;;3.83;2.85;;;12.50;51.00;;;;;;5068225;28;20555;-58
2023/05/03 00:43:51;;;;;;;3.53;2.67;;;12.50;51.30;;;;;;5078179;28;20036;-59
2023/05/03 00:46:17;;;;;;;4.13;3.13;;;12.50;51.10;;;;;;5071168;28;20044;-58
2023/05/03 00:48:46;;;;;;;4.03;2.70;;;12.40;51.10;;;;;;5066457;28;20539;-58
2023/05/03 00:51:14;;;;;;;5.75;3.03;;;12.50;51.20;;;;;;5077252;28;20040;-59
2023/05/03 00:53:41;;;;;;;3.70;2.75;;;12.50;51.30;;;;;;5073410;28;20557;-57
2023/05/03 00:56:08;;;;;;;3.63;2.80;;;12.40;51.30;;;;;;5071747;28;20127;-58
2023/05/03 00:58:35;;;;;;;8.32;3.00;;;12.40;51.50;;;;;;5073634;28;20113;-57
2023/05/03 01:01:01;;;;;;;3.55;2.75;;;12.40;51.60;;;;;;5077240;28;20028;-58
2023/05/03 01:03:28;;;;;;;3.53;2.58;;;12.40;51.80;;;;;;5073504;28;20024;-58
2023/05/03 01:06:15;;;;;;;4.28;2.90;;;12.40;51.80;;;;;;5073095;28;20107;-46
2023/05/03 01:08:53;;;;;;;4.50;2.70;;;12.40;51.80;;;;;;5068723;28;20044;-51
2023/05/03 01:11:29;;;;;;;3.92;2.90;;;12.40;51.90;;;;;;5076160;28;20048;-59
2023/05/03 01:14:00;;;;;;;4.22;2.97;;;12.40;52.00;;;;;;5073015;28;20147;-59
2023/05/03 01:16:35;;;;;;;4.63;2.90;;;12.30;52.20;;;;;;5073080;28;20040;-59
2023/05/03 01:19:05;;;;;;;3.30;2.53;;;12.30;52.30;;;;;;5072829;28;20035;-59
2023/05/03 01:21:32;;;;;;;3.45;2.70;;;12.30;52.30;;;;;;5073520;28;20028;-58
2023/05/03 01:24:16;;;;;;;5.15;3.15;;;12.30;52.40;;;;;;5069623;28;20546;-56
2023/05/03 01:26:42;;;;;;;2.90;2.30;;;12.20;52.60;;;;;;5068360;28;20069;-59
2023/05/03 01:29:07;;;;;;;3.85;2.78;;;12.20;52.80;;;;;;5077521;28;20039;-59
2023/05/03 01:31:42;;;;;;;4.28;2.95;;;12.20;52.90;;;;;;5072663;28;20024;-56
2023/05/03 01:34:45;;;;;;;3.78;2.78;;;12.10;53.00;;;;;;5075498;28;20490;-56
2023/05/03 01:37:13;;;;;;;3.92;2.80;;;12.10;53.10;;;;;;5070385;28;20036;-56
2023/05/03 01:39:54;;;;;;;3.75;2.97;;;12.10;53.30;;;;;;5075113;28;20482;-54
2023/05/03 01:42:22;;;;;;;4.43;2.83;;;12.10;53.20;;;;;;5073446;28;20027;-46
2023/05/03 01:44:49;;;;;;;4.00;3.00;;;12.00;53.30;;;;;;5078529;28;20032;-49
2023/05/03 01:47:15;;;;;;;4.15;2.65;;;12.00;53.50;;;;;;5079653;28;20506;-55
2023/05/03 01:49:41;;;;;;;3.63;2.88;;;12.00;53.60;;;;;;5071935;28;20028;-56
2023/05/03 01:52:07;;;;;;;4.57;2.90;;;12.00;53.70;;;;;;5080059;28;20347;-57
2023/05/03 01:54:33;;;;;;;4.40;2.80;;;11.90;53.70;;;;;;5072622;28;20086;-56
2023/05/03 01:56:58;;;;;;;3.67;2.63;;;11.90;54.00;;;;;;5070667;28;20052;-58
2023/05/03 01:59:24;;;;;;;4.40;2.90;;;11.90;54.40;;;;;;5075486;28;20433;-57
2023/05/03 02:01:49;;;;;;;3.78;2.83;;;11.90;54.30;;;;;;5065489;28;20021;-58
2023/05/03 02:04:15;;;;;;;4.20;2.85;;;11.80;54.30;;;;;;5065970;28;20033;-59
2023/05/03 02:06:41;;;;;;;4.43;3.30;;;11.80;54.50;;;;;;5067496;28;20032;-55
2023/05/03 02:09:07;;;;;;;4.72;3.13;;;11.80;54.60;;;;;;5066573;28;20629;-56
2023/05/03 02:11:33;;;;;;;4.45;2.80;;;11.80;54.70;;;;;;5067870;28;20119;-56
2023/05/03 02:13:58;;;;;;;4.18;2.80;;;11.80;55.30;;;;;;5069326;28;20127;-59
2023/05/03 02:16:25;;;;;;;4.43;3.30;;;11.80;54.80;;;;;;5070030;28;20070;-49
2023/05/03 02:18:50;;;;;;;4.93;3.17;;;11.70;54.90;;;;;;5072050;28;20099;-53
2023/05/03 02:21:16;;;;;;;5.40;3.10;;;11.80;55.00;;;;;;5075355;28;20108;-60
2023/05/03 02:23:42;;;;;;;5.45;3.53;;;11.70;55.10;;;;;;5076983;28;20432;-58
2023/05/03 02:26:07;;;;;;;4.97;3.20;;;11.70;55.20;;;;;;5077493;28;20649;-57
2023/05/03 02:28:33;;;;;;;5.68;3.45;;;11.70;55.30;;;;;;5071262;28;20029;-58
2023/05/03 02:30:59;;;;;;;4.97;3.15;;;11.80;55.50;;;;;;5077119;28;20475;-56
2023/05/03 02:33:24;;;;;;;4.85;3.35;;;11.70;55.70;;;;;;5067428;28;20043;-56
2023/05/03 02:35:50;;;;;;;4.20;3.20;;;11.70;55.80;;;;;;5074253;28;20119;-57
2023/05/03 02:38:16;;;;;;;5.05;2.95;;;11.70;55.90;;;;;;5070537;28;20028;-59
2023/05/03 02:40:41;;;;;;;4.35;3.25;;;11.70;56.10;;;;;;5068218;28;20451;-58
2023/05/03 02:43:07;;;;;;;5.05;3.22;;;11.70;56.20;;;;;;5070790;28;20048;-59
2023/05/03 02:45:35;;;;;;;5.53;3.20;;;11.70;56.20;;;;;;5071849;28;20028;-56
2023/05/03 02:48:01;;;;;;;6.95;3.30;;;11.70;56.30;;;;;;5073231;28;20050;-56
2023/05/03 02:50:27;;;;;;;4.72;3.47;;;11.80;56.30;;;;;;5067213;28;20028;-55
2023/05/03 02:52:52;;;;;;;5.53;3.63;;;11.70;56.30;;;;;;5066229;28;20029;-56
2023/05/03 02:55:18;;;;;;;4.65;3.40;;;11.80;56.40;;;;;;5072442;28;20036;-56
2023/05/03 02:57:43;;;;;;;4.40;3.08;;;11.80;56.60;;;;;;5067661;28;20037;-56
2023/05/03 03:00:14;;;;;;;4.07;3.03;;;11.80;56.50;;;;;;5069787;28;20029;-55
2023/05/03 03:02:39;;;;;;;4.90;3.00;;;11.90;56.70;;;;;;5072996;28;20024;-55
2023/05/03 03:05:05;;;;;;;5.47;3.17;;;11.90;56.70;;;;;;5071622;28;20466;-56
2023/05/03 03:07:31;;;;;;;5.07;3.40;;;12.00;56.90;;;;;;5065904;28;20040;-56
2023/05/03 03:09:57;;;;;;;6.22;3.47;;;12.10;56.90;;;;;;5059700;28;20116;-56
2023/05/03 03:12:24;;;;;;;6.55;3.80;;;12.20;57.00;;;;;;5069088;28;20147;-56
2023/05/03 03:14:49;;;;;;;6.40;4.32;;;12.30;57.00;;;;;;5067475;28;20853;-54
2023/05/03 03:17:15;;;;;;;7.05;5.80;;;12.50;57.00;;;;;;5068703;28;20056;-47
2023/05/03 03:19:40;;;;;;;7.28;5.68;;;12.70;57.00;;;;;;5080625;28;20062;-50
2023/05/03 03:22:06;;;;;;;10.43;6.78;;;12.80;56.80;;;;;;5070626;28;20024;-46
2023/05/03 03:24:32;;;;;;;6.00;5.38;;;12.90;56.80;;;;;;5069605;28;20060;-52
2023/05/03 03:26:58;;;;;;;6.68;5.13;;;13.10;56.70;;;;;;5071542;28;20039;-56
2023/05/03 03:29:24;;;;;;;5.45;4.15;;;13.30;56.60;;;;;;5071086;28;20025;-57
2023/05/03 03:31:49;;;;;;;7.32;4.40;;;13.40;56.40;;;;;;5064696;28;20028;-56
2023/05/03 03:34:15;;;;;;;5.32;3.85;;;13.50;56.30;;;;;;5071931;28;20540;-56
2023/05/03 03:36:41;;;;;;;6.70;4.20;;;13.70;56.20;;;;;;5068482;28;20111;-53
2023/05/03 03:39:06;;;;;;;6.68;3.53;;;13.80;56.20;;;;;;5069085;28;20039;-57
2023/05/03 03:41:32;;;;;;;6.57;3.80;;;13.90;56.20;;;;;;5077450;28;20044;-55
2023/05/03 03:43:58;;;;;;;6.18;3.60;;;14.00;56.20;;;;;;5070928;28;20094;-55
2023/05/03 03:46:24;;;;;;;6.43;3.60;;;14.10;56.10;;;;;;5078415;28;20069;-56
2023/05/03 03:48:49;;;;;;;6.00;3.35;;;14.20;55.90;;;;;;5069549;28;20601;-57
2023/05/03 03:51:15;;;;;;;4.22;2.90;;;14.40;55.80;;;;;;5071412;28;20032;-51
2023/05/03 03:53:41;;;;;;;4.65;3.20;;;14.50;55.50;;;;;;5070584;28;20039;-51
2023/05/03 03:56:07;;;;;;;3.50;2.63;;;14.60;55.40;;;;;;5073845;28;20043;-49
2023/05/03 03:58:32;;;;;;;4.22;3.00;;;14.70;55.40;;;;;;5067340;28;20467;-50
2023/05/03 04:00:59;;;;;;;5.57;3.05;;;14.80;55.90;;;;;;5068848;28;20050;-54
2023/05/03 04:03:25;;;;;;;4.57;2.85;;;15.20;56.30;;;;;;5075403;28;20055;-51
2023/05/03 04:05:51;;;;;;;5.47;2.70;;;15.70;56.30;;;;;;5063981;28;20137;-59
2023/05/03 04:08:16;;;;;;;5.28;3.13;;;16.40;55.70;;;;;;5061603;28;20067;-59
2023/05/03 04:10:43;;;;;;;4.75;2.60;;;17.10;54.50;;;;;;5062519;28;20074;-59
2023/05/03 04:13:09;;;;;;;4.40;2.70;;;17.70;53.50;;;;;;5069444;28;20471;-59
2023/05/03 04:15:34;;;;;;;3.88;2.70;;;18.20;52.80;;;;;;5067877;28;20028;-58
2023/05/03 04:18:00;;;;;;;5.18;2.80;;;18.80;52.30;;;;;;5071603;28;20059;-60
2023/05/03 04:20:26;;;;;;;3.97;2.60;;;19.20;51.50;;;;;;5080696;28;20060;-51
2023/05/03 04:22:51;;;;;;;4.50;2.60;;;19.50;50.50;;;;;;5076382;28;20037;-51
2023/05/03 04:25:17;;;;;;;4.50;2.45;;;19.70;50.00;;;;;;5073643;28;20050;-58
2023/05/03 04:27:43;;;;;;;4.10;2.92;;;19.80;49.50;;;;;;5071183;28;20032;-56
2023/05/03 04:30:10;;;;;;;3.78;2.50;;;19.80;49.10;;;;;;5072070;28;20041;-57
2023/05/03 04:32:36;;;;;;;3.33;2.50;;;19.90;48.90;;;;;;5073481;28;20028;-57
2023/05/03 04:35:09;;;;;;;3.10;2.20;;;19.90;48.90;;;;;;5074025;28;20457;-57
2023/05/03 04:37:39;;;;;;;3.83;2.40;;;19.90;48.60;;;;;;5072558;28;20033;-56
2023/05/03 04:40:08;;;;;;;2.75;2.22;;;20.00;48.70;;;;;;5075684;28;20522;-59
2023/05/03 04:42:35;;;;;;;2.47;2.28;;;20.30;48.70;;;;;;5076851;28;20033;-59
2023/05/03 04:45:02;;;;;;;3.88;2.72;;;20.60;48.50;;;;;;5085852;28;20059;-55
2023/05/03 04:47:28;;;;;;;3.40;2.30;;;21.00;48.20;;;;;;5084989;28;20476;-59
2023/05/03 04:49:54;;;;;;;3.22;2.40;;;21.50;47.80;;;;;;5081490;28;20031;-61
2023/05/03 04:52:20;;;;;;;2.70;2.22;;;22.00;47.30;;;;;;5069724;28;20032;-60
2023/05/03 04:54:46;;;;;;;8.25;2.20;;;22.60;47.00;;;;;;5074576;28;20700;-60
2023/05/03 04:57:12;;;;;;;2.53;2.00;;;23.10;46.70;;;;;;5070805;28;20037;-58
2023/05/03 04:59:37;;;;;;;2.85;2.00;;;23.60;46.30;;;;;;5073073;28;20497;-56
2023/05/03 05:02:03;;;;;;;3.38;2.20;;;24.30;45.90;;;;;;5071560;28;20031;-60
2023/05/03 05:04:29;;;;;;;3.17;2.10;;;24.80;45.30;;;;;;5068627;28;20579;-59
2023/05/03 05:06:54;;;;;;;3.50;1.83;;;25.20;44.60;;;;;;5080629;28;20100;-58
2023/05/03 05:09:23;;;;;;;2.13;1.60;;;25.50;44.20;;;;;;5082726;28;20072;-58
2023/05/03 05:11:48;;;;;;;3.10;1.65;;;25.60;43.90;;;;;;5072287;28;20043;-57
2023/05/03 05:14:14;;;;;;;2.67;2.20;;;25.60;43.40;;;;;;5074963;28;20122;-58
2023/05/03 05:16:40;;;;;;;2.72;2.17;;;25.40;43.10;;;;;;5081954;28;20032;-57
2023/05/03 05:19:07;;;;;;;2.00;1.45;;;25.10;42.90;;;;;;5064176;28;20020;-59
2023/05/03 05:21:32;;;;;;;2.67;1.92;;;24.80;43.00;;;;;;5061469;28;20438;-58
2023/05/03 05:23:59;;;;;;;1.55;1.45;;;24.70;43.20;;;;;;5066420;28;20036;-59
2023/05/03 05:26:26;;;;;;;1.95;1.75;;;24.70;42.90;;;;;;5068963;28;20024;-57
2023/05/03 05:28:51;;;;;;;1.95;1.85;;;24.80;42.60;;;;;;5068761;28;20036;-58
2023/05/03 05:31:17;;;;;;;2.58;2.00;;;24.80;42.10;;;;;;5072866;28;20098;-56
2023/05/03 05:33:43;;;;;;;2.00;1.80;;;24.60;41.90;;;;;;5066782;28;20120;-55
2023/05/03 05:36:09;;;;;;;3.92;2.08;;;24.20;42.00;;;;;;5064416;28;20570;-50
2023/05/03 05:38:35;;;;;;;2.35;2.15;;;23.80;42.30;;;;;;5065375;28;20059;-48
2023/05/03 05:41:01;;;;;;;2.70;2.20;;;23.30;42.60;;;;;;5077429;28;20016;-48
2023/05/03 05:43:26;;;;;;;2.58;2.30;;;22.90;43.20;;;;;;5068153;28;20033;-49
2023/05/03 05:45:52;;;;;;;2.67;2.10;;;22.50;43.50;;;;;;5061915;28;20039;-49
2023/05/03 05:48:18;;;;;;;3.67;2.25;;;22.20;43.70;;;;;;5063467;28;20106;-52
2023/05/03 05:50:44;;;;;;;3.28;2.28;;;21.90;44.10;;;;;;5060986;28;20032;-48
2023/05/03 05:53:10;;;;;;;3.17;1.73;;;21.70;44.20;;;;;;5073118;28;20040;-53
2023/05/03 05:55:36;;;;;;;2.38;2.13;;;21.60;44.50;;;;;;5068126;28;20055;-59
2023/05/03 05:58:02;;;;;;;2.60;2.00;;;21.50;44.50;;;;;;5071674;28;20044;-60
2023/05/03 06:00:29;;;;;;;2.97;2.10;;;21.30;44.40;;;;;;5069628;28;20120;-60
2023/05/03 06:02:54;;;;;;;2.88;2.35;;;21.20;44.60;;;;;;5059449;28;20044;-59
2023/05/03 06:05:20;;;;;;;2.50;2.30;;;21.10;44.90;;;;;;5061580;28;20054;-55
2023/05/03 06:07:46;;;;;;;2.67;2.30;;;21.00;45.50;;;;;;5058608;28;20040;-55
2023/05/03 06:10:12;;;;;;;3.78;2.10;;;20.90;45.10;;;;;;5061027;28;20483;-55
2023/05/03 06:12:37;;;;;;;3.17;2.25;;;20.80;45.30;;;;;;5063468;28;20032;-58
2023/05/03 06:15:04;;;;;;;3.55;1.83;;;20.70;45.30;;;;;;5059592;28;20032;-56
2023/05/03 06:17:30;;;;;;;4.32;2.58;;;20.70;45.40;;;;;;5055066;28;20032;-53
2023/05/03 06:19:56;;;;;;;4.70;2.60;;;20.70;45.50;;;;;;5058615;28;20465;-52
2023/05/03 06:22:22;;;;;;;3.58;2.30;;;20.70;45.60;;;;;;5061923;28;20041;-52
2023/05/03 06:24:48;;;;;;;3.65;2.45;;;20.70;45.80;;;;;;5058351;28;21008;-54
2023/05/03 06:27:13;;;;;;;4.88;2.35;;;20.60;45.80;;;;;;5058125;28;20020;-52
2023/05/03 06:29:39;;;;;;;2.45;2.03;;;20.60;45.80;;;;;;5053863;28;20804;-56
2023/05/03 06:32:05;;;;;;;2.67;2.20;;;20.60;45.50;;;;;;5061779;28;20028;-54
2023/05/03 06:34:30;;;;;;;2.20;2.00;;;20.50;45.60;;;;;;5062404;28;20028;-53
2023/05/03 06:36:56;;;;;;;4.03;2.35;;;20.40;45.50;;;;;;5063813;28;20039;-55
2023/05/03 06:39:22;;;;;;;2.92;2.63;;;20.40;45.60;;;;;;5058159;28;20056;-56
2023/05/03 06:41:47;;;;;;;2.97;2.17;;;20.40;45.80;;;;;;5049956;28;20044;-53
2023/05/03 06:44:13;;;;;;;2.85;2.17;;;20.30;45.90;;;;;;5061593;28;20031;-49
2023/05/03 06:46:39;;;;;;;4.20;2.47;;;20.30;46.10;;;;;;5061677;28;20028;-50
2023/05/03 06:49:04;;;;;;;3.17;2.47;;;20.20;46.10;;;;;;5065429;28;20140;-50
2023/05/03 06:51:31;;;;;;;2.45;2.08;;;20.10;46.30;;;;;;5056705;28;20036;-57
2023/05/03 06:54:00;;;;;;;2.72;2.28;;;20.10;46.50;;;;;;5044760;28;20067;-53
2023/05/03 06:56:27;;;;;;;1.77;1.67;;;20.10;46.60;;;;;;5057762;28;20036;-54
2023/05/03 06:58:53;;;;;;;3.47;2.10;;;20.10;46.60;;;;;;5047946;28;21347;-51
2023/05/03 07:01:19;;;;;;;3.22;2.35;;;20.00;46.80;;;;;;5041794;28;20114;-52
2023/05/03 07:03:45;;;;;;;2.33;2.10;;;20.00;47.00;;;;;;5042028;28;20043;-49
2023/05/03 07:06:11;;;;;;;2.42;2.10;;;20.00;47.00;;;;;;5053787;28;20024;-50
2023/05/03 07:08:37;;;;;;;4.15;2.40;;;20.00;47.10;;;;;;5038424;28;20055;-52
2023/05/03 07:11:03;;;;;;;2.80;1.88;;;20.00;47.10;;;;;;5036388;28;20024;-57
2023/05/03 07:13:29;;;;;;;3.92;2.03;;;20.00;47.20;;;;;;5039179;28;20107;-58
2023/05/03 07:15:55;;;;;;;3.15;2.10;;;20.00;47.40;;;;;;5054186;28;20047;-53
2023/05/03 07:18:20;;;;;;;3.13;2.20;;;20.00;47.30;;;;;;5045559;28;20036;-53
2023/05/03 07:20:46;;;;;;;2.45;2.08;;;20.00;47.30;;;;;;5045108;28;20056;-55
2023/05/03 07:23:12;;;;;;;2.95;2.15;;;20.10;47.20;;;;;;5051398;28;20045;-55
2023/05/03 07:25:38;;;;;;;3.28;1.90;;;20.10;46.90;;;;;;5043617;28;20162;-56
2023/05/03 07:28:04;;;;;;;4.65;1.90;;;20.00;46.70;;;;;;5043797;28;20088;-54
2023/05/03 07:30:29;;;;;;;4.32;2.03;;;20.00;46.80;;;;;;5021429;28;20882;-55
2023/05/03 07:32:55;;;;;;;4.45;2.10;;;20.00;47.10;;;;;;5026953;28;20960;-55
2023/05/03 07:35:22;;;;;;;2.58;2.03;;;20.00;47.30;;;;;;5025599;28;20036;-57
2023/05/03 07:37:47;;;;;;;2.65;2.00;;;20.00;47.40;;;;;;5040940;28;20028;-57
2023/05/03 07:40:13;;;;;;;2.35;2.08;;;20.00;47.00;;;;;;5030420;28;20028;-58
2023/05/03 07:42:39;;;;;;;2.95;2.22;;;20.00;47.00;;;;;;5041802;28;20108;-54
2023/05/03 07:45:05;;;;;;;2.35;1.90;;;20.00;47.10;;;;;;5045918;28;20028;-57
2023/05/03 07:47:33;;;;;;;2.97;1.77;;;20.00;47.20;;;;;;5040771;28;20039;-57
2023/05/03 07:49:59;;;;;;;1.80;1.70;;;20.00;47.10;;;;;;5043146;28;20029;-59
2023/05/03 07:52:24;;;;;;;2.30;2.00;;;20.00;47.10;;;;;;5044086;28;20658;-57
2023/05/03 07:54:52;;;;;;;2.20;2.00;;;20.00;47.30;;;;;;5047054;28;20029;-56
2023/05/03 07:57:17;;;;;;;2.40;2.10;;;20.10;47.40;;;;;;5038999;28;20074;-58
2023/05/03 07:59:43;;;;;;;2.17;1.90;;;20.10;47.60;;;;;;5040623;28;20960;-57
2023/05/03 08:02:09;;;;;;;3.47;1.98;;;20.10;47.20;;;;;;5012111;28;20105;-57
2023/05/03 08:04:35;;;;;;;3.17;1.90;;;20.10;47.30;;;;;;5031766;28;20452;-59
2023/05/03 08:07:03;;;;;;;3.42;2.17;;;20.20;47.40;;;;;;5036862;28;20057;-56
2023/05/03 08:09:29;;;;;;;2.08;1.95;;;20.20;47.20;;;;;;5043493;28;20041;-55
2023/05/03 08:11:55;;;;;;;4.35;2.17;;;20.20;47.10;;;;;;5041169;28;20024;-59
2023/05/03 08:14:22;;;;;;;3.55;2.20;;;20.20;47.00;;;;;;5049007;28;20132;-59
2023/05/03 08:16:48;;;;;;;3.38;2.35;;;20.20;46.90;;;;;;5046911;28;20114;-57
2023/05/03 08:19:14;;;;;;;1.92;1.52;;;20.30;46.90;;;;;;5037315;28;20124;-60
2023/05/03 08:21:39;;;;;;;1.67;1.58;;;20.30;47.00;;;;;;5047065;28;20990;-59
2023/05/03 08:24:07;;;;;;;2.00;1.83;;;20.30;47.00;;;;;;5048644;28;20535;-60
2023/05/03 08:26:33;;;;;;;3.30;1.80;;;20.30;46.90;;;;;;5044211;28;20128;-58
2023/05/03 08:29:01;;;;;;;2.33;1.98;;;20.20;46.70;;;;;;5042646;28;20640;-58
2023/05/03 08:31:27;;;;;;;2.67;1.98;;;20.20;46.60;;;;;;5033100;28;21096;-57
2023/05/03 08:33:52;;;;;;;2.20;2.00;;;20.20;46.60;;;;;;5040209;28;20143;-57
2023/05/03 08:36:18;;;;;;;2.60;2.03;;;20.20;46.50;;;;;;5037825;28;20040;-58
2023/05/03 08:38:44;;;;;;;2.53;1.77;;;20.30;46.50;;;;;;5044796;28;21945;-59
2023/05/03 08:41:26;;;;;;;2.45;2.10;;;20.20;46.40;;;;;;5048992;28;20025;-59
2023/05/03 08:43:53;;;;;;;4.35;2.13;;;20.30;46.50;;;;;;5050544;28;20044;-56
2023/05/03 08:46:19;;;;;;;2.28;2.00;;;20.20;46.60;;;;;;5052023;28;20738;-60
2023/05/03 08:48:49;;;;;;;2.30;1.90;;;20.30;46.50;;;;;;5039639;28;20031;-61
2023/05/03 08:51:16;;;;;;;2.97;1.95;;;20.20;46.40;;;;;;5041806;28;20089;-58
2023/05/03 08:53:41;;;;;;;3.13;1.77;;;20.30;46.40;;;;;;5036000;28;20066;-58
2023/05/03 08:56:09;;;;;;;2.33;1.92;;;20.30;46.30;;;;;;5037007;28;20036;-60
2023/05/03 08:58:36;;;;;;;3.38;2.15;;;20.30;46.40;;;;;;5051208;28;20032;-60
2023/05/03 09:01:06;;;;;;;2.42;1.98;;;20.20;46.10;;;;;;5033091;28;20093;-57
2023/05/03 09:03:32;;;;;;;2.17;1.98;;;20.20;45.90;;;;;;5041030;28;20048;-57
2023/05/03 09:06:01;;;;;;;2.15;1.95;;;20.20;46.00;;;;;;5048424;28;20032;-59
2023/05/03 09:08:28;;;;;;;2.70;1.90;;;20.10;45.90;;;;;;5043534;28;20198;-59
2023/05/03 09:10:53;;;;;;;2.33;2.10;;;20.10;45.90;;;;;;5052682;28;20032;-58
2023/05/03 09:13:19;;;;;;;1.80;1.60;;;20.00;45.80;;;;;;5045743;28;20090;-57
2023/05/03 09:15:55;;;;;;;4.25;2.25;;;20.00;45.70;;;;;;5052801;28;20043;-59
2023/05/03 09:18:22;;;;;;;2.25;1.80;;;20.00;45.80;;;;;;5041978;28;20111;-59
2023/05/03 09:20:52;;;;;;;1.90;1.80;;;20.00;46.10;;;;;;5060721;28;20127;-59
2023/05/03 09:23:29;;;;;;;3.35;2.00;;;19.90;46.30;;;;;;5053698;28;20090;-59
2023/05/03 09:25:55;;;;;;;1.85;1.75;;;19.90;46.40;;;;;;5047151;28;20036;-62
2023/05/03 09:28:21;;;;;;;1.63;1.52;;;19.80;45.80;;;;;;5042593;28;20973;-59
2023/05/03 09:30:47;;;;;;;2.10;1.85;;;19.80;45.40;;;;;;5035756;28;20510;-61
2023/05/03 09:33:23;;;;;;;2.00;1.80;;;19.80;45.20;;;;;;5050148;28;20043;-56
2023/05/03 09:36:02;;;;;;;2.35;1.70;;;19.80;45.10;;;;;;5052006;28;20040;-57
2023/05/03 09:38:31;;;;;;;2.42;2.00;;;19.80;45.20;;;;;;5052480;28;20422;-56
2023/05/03 09:40:57;;;;;;;1.88;1.48;;;19.80;45.30;;;;;;5050091;28;20033;-57
2023/05/03 09:43:22;;;;;;;3.30;1.98;;;19.80;45.40;;;;;;5050041;28;20043;-57
2023/05/03 09:45:48;;;;;;;2.10;1.90;;;19.80;45.30;;;;;;5049488;28;20853;-55
2023/05/03 09:48:15;;;;;;;2.30;1.70;;;19.80;45.30;;;;;;5052401;28;20025;-59
2023/05/03 09:50:42;;;;;;;2.20;1.50;;;19.90;45.30;;;;;;5051934;28;20047;-55
2023/05/03 09:53:08;;;;;;;2.03;1.77;;;19.90;45.20;;;;;;5047254;28;20032;-58
2023/05/03 09:55:38;;;;;;;2.15;1.80;;;20.00;45.20;;;;;;5046780;28;20044;-57
2023/05/03 09:58:05;;;;;;;1.58;1.48;;;20.00;45.10;;;;;;5037761;28;20036;-58
2023/05/03 10:00:38;;;;;;;2.78;1.58;;;20.10;45.10;;;;;;5043179;28;20454;-59
2023/05/03 10:03:08;;;;;;;1.88;1.63;;;20.10;45.10;;;;;;5042302;28;20044;-57
2023/05/03 10:05:39;;;;;;;1.88;1.67;;;20.20;45.20;;;;;;5045043;28;20146;-56
2023/05/03 10:08:06;;;;;;;2.50;1.90;;;20.20;45.10;;;;;;5047593;28;20025;-57
2023/05/03 10:10:33;;;;;;;1.80;1.70;;;20.30;45.00;;;;;;5056081;28;20033;-58
2023/05/03 10:13:01;;;;;;;2.03;1.83;;;20.20;44.80;;;;;;5056311;28;20848;-55
2023/05/03 10:15:29;;;;;;;2.90;1.85;;;20.20;44.90;;;;;;5060096;28;20036;-57
2023/05/03 10:17:56;;;;;;;2.05;1.60;;;20.30;45.00;;;;;;5057516;28;20032;-57
2023/05/03 10:20:49;;;;;;;2.08;1.90;;;20.20;45.10;;;;;;5044230;28;20043;-56
2023/05/03 10:23:16;;;;;;;2.22;1.75;;;20.20;45.00;;;;;;5056186;28;20037;-56
2023/05/03 10:26:08;;;;;;;5.82;1.73;;;20.20;45.00;;;;;;5049648;28;20037;-56
2023/05/03 10:28:36;;;;;;;1.70;1.50;;;20.20;45.20;;;;;;5047607;28;20028;-58
2023/05/03 10:31:02;;;;;;;1.48;1.38;;;20.20;45.20;;;;;;5046878;28;20090;-56
2023/05/03 10:33:33;;;;;;;1.80;1.70;;;20.20;45.20;;;;;;5056940;28;20028;-57
2023/05/03 10:36:05;;;;;;;1.20;1.20;;;20.20;45.00;;;;;;5049679;28;20032;-56
2023/05/03 10:38:31;;;;;;;2.25;1.50;;;20.20;44.80;;;;;;5051010;28;20028;-56
2023/05/03 10:40:58;;;;;;;3.42;1.92;;;20.20;44.80;;;;;;5047800;28;20028;-58
2023/05/03 10:43:33;;;;;;;2.55;1.73;;;20.20;44.70;;;;;;5056731;28;20647;-54
2023/05/03 10:46:04;;;;;;;3.15;1.60;;;20.20;44.50;;;;;;5032142;28;20033;-57
2023/05/03 10:48:30;;;;;;;4.03;1.60;;;20.20;44.60;;;;;;5052215;28;20032;-57
2023/05/03 10:51:17;;;;;;;1.60;1.50;;;20.20;44.40;;;;;;5047428;28;20036;-54
2023/05/03 10:53:43;;;;;;;3.55;1.80;;;20.20;44.20;;;;;;5049911;28;20032;-54
2023/05/03 10:56:11;;;;;;;1.98;1.63;;;20.30;44.20;;;;;;5063478;28;20025;-58
2023/05/03 10:58:40;;;;;;;2.13;1.63;;;20.30;44.10;;;;;;5037826;28;20039;-57
2023/05/03 11:01:08;;;;;;;1.77;1.40;;;20.30;44.00;;;;;;5043265;28;20082;-54
2023/05/03 11:03:44;;;;;;;3.75;1.60;;;20.30;43.90;;;;;;5040557;28;20047;-55
2023/05/03 11:06:25;;;;;;;1.60;1.50;;;20.40;43.60;;;;;;5034177;28;20040;-56
2023/05/03 11:08:51;;;;;;;2.72;2.00;;;20.30;43.50;;;;;;5045836;28;20044;-57
2023/05/03 11:11:16;;;;;;;2.72;1.70;;;20.30;43.50;;;;;;5041378;28;20058;-57
2023/05/03 11:13:42;;;;;;;3.10;1.88;;;20.40;43.30;;;;;;5033834;28;20086;-56
2023/05/03 11:16:09;;;;;;;1.95;1.77;;;20.30;43.40;;;;;;5043177;28;20098;-56
2023/05/03 11:18:35;;;;;;;2.08;1.65;;;20.40;43.50;;;;;;5038798;28;20123;-55
2023/05/03 11:21:01;;;;;;;3.53;1.80;;;20.40;43.60;;;;;;5039475;28;20058;-58
2023/05/03 11:23:28;;;;;;;2.58;1.70;;;20.40;43.40;;;;;;5044849;28;20032;-56
2023/05/03 11:25:55;;;;;;;1.77;1.52;;;20.40;43.40;;;;;;5048116;28;20104;-56
2023/05/03 11:28:22;;;;;;;1.70;1.20;;;20.40;43.20;;;;;;5042851;28;20028;-57
2023/05/03 11:30:49;;;;;;;2.03;1.42;;;20.40;43.70;;;;;;5043812;28;20031;-56
2023/05/03 11:33:15;;;;;;;1.45;1.35;;;20.50;43.10;;;;;;5043620;28;20131;-55
2023/05/03 11:35:41;;;;;;;2.05;1.42;;;20.50;43.10;;;;;;5046520;28;20060;-59
2023/05/03 11:38:08;;;;;;;1.35;1.23;;;20.50;43.30;;;;;;5042927;28;20059;-56
2023/05/03 11:40:35;;;;;;;2.97;1.90;;;20.50;43.20;;;;;;5044954;28;20032;-55
2023/05/03 11:43:01;;;;;;;1.65;1.50;;;20.50;43.30;;;;;;5045771;28;20032;-55
2023/05/03 11:45:31;;;;;;;3.33;1.63;;;20.60;43.40;;;;;;5044963;28;20055;-55
2023/05/03 11:47:58;;;;;;;1.15;1.10;;;20.60;43.60;;;;;;5046661;28;20028;-54
2023/05/03 11:50:46;;;;;;;1.60;1.50;;;20.60;43.40;;;;;;5035840;28;20032;-57
2023/05/03 11:53:14;;;;;;;2.17;1.65;;;20.60;43.50;;;;;;5045237;28;20057;-55
2023/05/03 11:55:47;;;;;;;2.40;1.85;;;20.60;43.50;;;;;;5029036;28;20036;-53
2023/05/03 11:58:26;;;;;;;2.45;1.60;;;20.60;43.20;;;;;;5030716;28;20058;-57
2023/05/03 12:00:54;;;;;;;1.70;1.40;;;20.60;43.10;;;;;;5027658;28;20786;-58
2023/05/03 12:03:27;;;;;;;2.03;1.75;;;20.60;43.10;;;;;;5035312;28;20064;-57
2023/05/03 12:05:53;;;;;;;3.90;2.13;;;20.60;43.00;;;;;;5044770;28;20058;-59
2023/05/03 12:08:20;;;;;;;2.55;1.60;;;20.60;43.10;;;;;;5050732;28;20052;-58
2023/05/03 12:10:49;;;;;;;2.53;1.88;;;20.60;43.20;;;;;;5040189;28;20032;-56
2023/05/03 12:13:34;;;;;;;2.92;1.70;;;20.60;43.30;;;;;;5044735;28;20040;-54
2023/05/03 12:16:00;;;;;;;1.92;1.58;;;20.60;43.10;;;;;;5048578;28;20033;-53
2023/05/03 12:18:26;;;;;;;3.60;1.75;;;20.50;43.10;;;;;;5043927;28;20032;-57
2023/05/03 12:20:57;;;;;;;2.00;1.58;;;20.50;43.10;;;;;;5040927;28;20037;-56
2023/05/03 12:23:26;;;;;;;3.90;1.67;;;20.50;43.10;;;;;;5050336;28;20830;-58
2023/05/03 12:25:52;;;;;;;1.60;1.50;;;20.50;43.20;;;;;;5052927;28;20331;-56
2023/05/03 12:28:18;;;;;;;1.77;1.60;;;20.50;43.20;;;;;;5037098;28;20440;-55
2023/05/03 12:30:45;;;;;;;1.58;1.40;;;20.40;43.10;;;;;;5033728;28;20055;-54
2023/05/03 12:33:10;;;;;;;1.80;1.70;;;20.50;43.20;;;;;;5034739;28;20741;-58
2023/05/03 12:35:36;;;;;;;1.33;1.23;;;20.50;43.30;;;;;;5039284;28;20060;-57
2023/05/03 12:38:03;;;;;;;1.65;1.55;;;20.50;43.30;;;;;;5037275;28;20032;-56
2023/05/03 12:40:28;;;;;;;1.77;1.40;;;20.50;43.40;;;;;;5032662;28;20668;-56
2023/05/03 12:42:55;;;;;;;1.42;1.33;;;20.40;43.40;;;;;;5036469;28;20044;-57
2023/05/03 12:45:21;;;;;;;1.85;1.75;;;20.40;43.40;;;;;;5043822;28;20536;-57
2023/05/03 12:47:47;;;;;;;1.75;1.65;;;20.40;43.40;;;;;;5050474;28;20032;-58